sensor_id;sensor_type;location;lat;lon;timestamp;P1;durP1;ratioP1;P2;durP2;ratioP2
69937;SDS011;57248;47.320;15.998;2023-03-13T00:01:50;11.02;;;3.42;;
69937;SDS011;57248;47.320;15.998;2023-03-13T00:04:22;9.10;;;3.33;;
69937;SDS011;57248;47.320;15.998;2023-03-13T00:06:54;9.18;;;3.00;;
69937;SDS011;57248;47.320;15.998;2023-03-13T00:09:26;9.23;;;2.85;;
69937;SDS011;57248;47.320;15.998;2023-03-13T00:11:58;8.30;;;2.90;;
69937;SDS011;57248;47.320;15.998;2023-03-13T00:14:30;9.70;;;3.42;;
69937;SDS011;57248;47.320;15.998;2023-03-13T00:17:02;9.85;;;3.30;;
69937;SDS011;57248;47.320;15.998;2023-03-13T00:19:28;10.00;;;3.37;;
69937;SDS011;57248;47.320;15.998;2023-03-13T00:22:00;9.73;;;3.45;;
69937;SDS011;57248;47.320;15.998;2023-03-13T00:24:32;8.93;;;3.13;;
69937;SDS011;57248;47.320;15.998;2023-03-13T00:27:11;10.65;;;3.42;;
69937;SDS011;57248;47.320;15.998;2023-03-13T00:29:44;10.15;;;3.00;;
69937;SDS011;57248;47.320;15.998;2023-03-13T00:32:23;10.27;;;3.93;;
69937;SDS011;57248;47.320;15.998;2023-03-13T00:34:55;11.00;;;4.25;;
69937;SDS011;57248;47.320;15.998;2023-03-13T00:37:27;11.02;;;4.20;;
69937;SDS011;57248;47.320;15.998;2023-03-13T00:40:03;12.18;;;3.83;;
69937;SDS011;57248;47.320;15.998;2023-03-13T00:42:36;10.82;;;4.00;;
69937;SDS011;57248;47.320;15.998;2023-03-13T00:45:08;10.43;;;3.47;;
69937;SDS011;57248;47.320;15.998;2023-03-13T00:47:41;9.18;;;3.85;;
69937;SDS011;57248;47.320;15.998;2023-03-13T00:50:07;9.30;;;3.60;;
69937;SDS011;57248;47.320;15.998;2023-03-13T00:52:39;9.98;;;3.53;;
69937;SDS011;57248;47.320;15.998;2023-03-13T00:55:11;9.95;;;4.05;;
69937;SDS011;57248;47.320;15.998;2023-03-13T00:57:43;10.20;;;3.73;;
69937;SDS011;57248;47.320;15.998;2023-03-13T01:00:15;10.02;;;3.40;;
69937;SDS011;57248;47.320;15.998;2023-03-13T01:02:47;13.85;;;3.88;;
69937;SDS011;57248;47.320;15.998;2023-03-13T01:05:13;10.70;;;3.95;;
69937;SDS011;57248;47.320;15.998;2023-03-13T01:07:45;9.90;;;3.65;;
69937;SDS011;57248;47.320;15.998;2023-03-13T01:10:17;8.83;;;3.50;;
69937;SDS011;57248;47.320;15.998;2023-03-13T01:12:49;10.27;;;3.10;;
69937;SDS011;57248;47.320;15.998;2023-03-13T01:15:21;9.23;;;3.58;;
69937;SDS011;57248;47.320;15.998;2023-03-13T01:17:53;10.18;;;3.85;;
69937;SDS011;57248;47.320;15.998;2023-03-13T01:20:25;10.35;;;3.53;;
69937;SDS011;57248;47.320;15.998;2023-03-13T01:23:05;8.60;;;2.67;;
69937;SDS011;57248;47.320;15.998;2023-03-13T01:25:37;7.15;;;2.30;;
69937;SDS011;57248;47.320;15.998;2023-03-13T01:28:24;6.13;;;2.20;;
69937;SDS011;57248;47.320;15.998;2023-03-13T01:30:56;7.72;;;2.33;;
69937;SDS011;57248;47.320;15.998;2023-03-13T01:33:29;9.15;;;3.03;;
69937;SDS011;57248;47.320;15.998;2023-03-13T01:36:01;9.43;;;3.23;;
69937;SDS011;57248;47.320;15.998;2023-03-13T01:38:34;7.82;;;2.83;;
69937;SDS011;57248;47.320;15.998;2023-03-13T01:41:07;10.40;;;3.58;;
69937;SDS011;57248;47.320;15.998;2023-03-13T01:43:42;7.63;;;2.75;;
69937;SDS011;57248;47.320;15.998;2023-03-13T01:46:16;8.15;;;2.67;;
69937;SDS011;57248;47.320;15.998;2023-03-13T01:49:30;9.57;;;2.90;;
69937;SDS011;57248;47.320;15.998;2023-03-13T01:52:22;7.65;;;2.50;;
69937;SDS011;57248;47.320;15.998;2023-03-13T01:55:11;9.63;;;3.15;;
69937;SDS011;57248;47.320;15.998;2023-03-13T01:57:49;10.43;;;3.20;;
69937;SDS011;57248;47.320;15.998;2023-03-13T02:00:24;10.57;;;3.50;;
69937;SDS011;57248;47.320;15.998;2023-03-13T02:03:02;8.50;;;2.73;;
69937;SDS011;57248;47.320;15.998;2023-03-13T02:05:39;7.82;;;2.67;;
69937;SDS011;57248;47.320;15.998;2023-03-13T02:08:14;11.50;;;3.63;;
69937;SDS011;57248;47.320;15.998;2023-03-13T02:10:53;9.52;;;3.10;;
69937;SDS011;57248;47.320;15.998;2023-03-13T02:13:30;10.55;;;3.20;;
69937;SDS011;57248;47.320;15.998;2023-03-13T02:16:02;9.67;;;3.43;;
69937;SDS011;57248;47.320;15.998;2023-03-13T02:18:35;8.95;;;3.15;;
69937;SDS011;57248;47.320;15.998;2023-03-13T02:21:24;9.55;;;3.10;;
69937;SDS011;57248;47.320;15.998;2023-03-13T02:27:11;8.00;;;2.40;;
69937;SDS011;57248;47.320;15.998;2023-03-13T02:29:50;7.53;;;2.47;;
69937;SDS011;57248;47.320;15.998;2023-03-13T02:32:24;7.90;;;2.58;;
69937;SDS011;57248;47.320;15.998;2023-03-13T02:34:58;6.55;;;2.30;;
69937;SDS011;57248;47.320;15.998;2023-03-13T02:37:35;7.63;;;2.65;;
69937;SDS011;57248;47.320;15.998;2023-03-13T02:40:14;8.32;;;2.63;;
69937;SDS011;57248;47.320;15.998;2023-03-13T02:42:50;6.83;;;2.37;;
69937;SDS011;57248;47.320;15.998;2023-03-13T02:45:24;7.47;;;2.53;;
69937;SDS011;57248;47.320;15.998;2023-03-13T02:47:57;9.05;;;3.17;;
69937;SDS011;57248;47.320;15.998;2023-03-13T02:50:29;8.52;;;2.90;;
69937;SDS011;57248;47.320;15.998;2023-03-13T02:53:04;7.75;;;2.88;;
69937;SDS011;57248;47.320;15.998;2023-03-13T02:55:39;7.67;;;2.73;;
69937;SDS011;57248;47.320;15.998;2023-03-13T02:58:11;8.98;;;3.10;;
69937;SDS011;57248;47.320;15.998;2023-03-13T03:00:43;7.05;;;2.50;;
69937;SDS011;57248;47.320;15.998;2023-03-13T03:03:16;7.28;;;2.38;;
69937;SDS011;57248;47.320;15.998;2023-03-13T03:05:48;8.00;;;2.42;;
69937;SDS011;57248;47.320;15.998;2023-03-13T03:08:20;7.77;;;2.67;;
69937;SDS011;57248;47.320;15.998;2023-03-13T03:10:52;7.07;;;2.40;;
69937;SDS011;57248;47.320;15.998;2023-03-13T03:13:24;6.57;;;2.15;;
69937;SDS011;57248;47.320;15.998;2023-03-13T03:15:56;9.45;;;2.50;;
69937;SDS011;57248;47.320;15.998;2023-03-13T03:18:28;8.25;;;2.50;;
69937;SDS011;57248;47.320;15.998;2023-03-13T03:21:02;6.73;;;2.17;;
69937;SDS011;57248;47.320;15.998;2023-03-13T03:23:38;7.90;;;2.22;;
69937;SDS011;57248;47.320;15.998;2023-03-13T03:26:09;8.65;;;2.40;;
69937;SDS011;57248;47.320;15.998;2023-03-13T03:28:48;8.27;;;2.58;;
69937;SDS011;57248;47.320;15.998;2023-03-13T03:31:20;8.00;;;2.58;;
69937;SDS011;57248;47.320;15.998;2023-03-13T03:33:46;7.17;;;2.47;;
69937;SDS011;57248;47.320;15.998;2023-03-13T03:36:19;7.78;;;2.72;;
69937;SDS011;57248;47.320;15.998;2023-03-13T03:38:52;6.95;;;2.33;;
69937;SDS011;57248;47.320;15.998;2023-03-13T03:41:25;8.63;;;2.42;;
69937;SDS011;57248;47.320;15.998;2023-03-13T03:43:58;8.33;;;2.20;;
69937;SDS011;57248;47.320;15.998;2023-03-13T03:46:41;9.45;;;2.72;;
69937;SDS011;57248;47.320;15.998;2023-03-13T03:49:13;7.07;;;2.20;;
69937;SDS011;57248;47.320;15.998;2023-03-13T03:51:46;7.55;;;2.30;;
69937;SDS011;57248;47.320;15.998;2023-03-13T03:54:25;8.55;;;2.63;;
69937;SDS011;57248;47.320;15.998;2023-03-13T03:56:58;7.00;;;2.37;;
69937;SDS011;57248;47.320;15.998;2023-03-13T03:59:31;8.15;;;2.60;;
69937;SDS011;57248;47.320;15.998;2023-03-13T04:02:07;9.38;;;2.22;;
69937;SDS011;57248;47.320;15.998;2023-03-13T04:04:34;8.60;;;2.30;;
69937;SDS011;57248;47.320;15.998;2023-03-13T04:07:15;9.02;;;2.30;;
69937;SDS011;57248;47.320;15.998;2023-03-13T04:09:48;8.90;;;2.37;;
69937;SDS011;57248;47.320;15.998;2023-03-13T04:12:26;7.13;;;2.30;;
69937;SDS011;57248;47.320;15.998;2023-03-13T04:14:58;6.72;;;2.17;;
69937;SDS011;57248;47.320;15.998;2023-03-13T04:17:30;8.27;;;2.30;;
69937;SDS011;57248;47.320;15.998;2023-03-13T04:20:03;9.57;;;2.40;;
69937;SDS011;57248;47.320;15.998;2023-03-13T04:22:39;6.07;;;1.73;;
69937;SDS011;57248;47.320;15.998;2023-03-13T04:25:06;7.90;;;2.60;;
69937;SDS011;57248;47.320;15.998;2023-03-13T04:27:39;7.90;;;2.50;;
69937;SDS011;57248;47.320;15.998;2023-03-13T04:30:27;8.02;;;2.50;;
69937;SDS011;57248;47.320;15.998;2023-03-13T04:33:23;9.60;;;2.63;;
69937;SDS011;57248;47.320;15.998;2023-03-13T04:36:05;6.53;;;2.10;;
69937;SDS011;57248;47.320;15.998;2023-03-13T04:39:00;7.57;;;2.47;;
69937;SDS011;57248;47.320;15.998;2023-03-13T04:41:55;7.93;;;2.33;;
69937;SDS011;57248;47.320;15.998;2023-03-13T04:44:40;7.50;;;2.60;;
69937;SDS011;57248;47.320;15.998;2023-03-13T04:47:31;6.47;;;2.28;;
69937;SDS011;57248;47.320;15.998;2023-03-13T04:50:21;5.30;;;1.90;;
69937;SDS011;57248;47.320;15.998;2023-03-13T04:53:04;5.57;;;1.92;;
69937;SDS011;57248;47.320;15.998;2023-03-13T04:55:59;8.48;;;2.38;;
69937;SDS011;57248;47.320;15.998;2023-03-13T04:58:53;6.85;;;2.00;;
69937;SDS011;57248;47.320;15.998;2023-03-13T05:01:51;7.40;;;2.25;;
69937;SDS011;57248;47.320;15.998;2023-03-13T05:04:42;8.70;;;2.70;;
69937;SDS011;57248;47.320;15.998;2023-03-13T05:07:24;12.98;;;2.42;;
69937;SDS011;57248;47.320;15.998;2023-03-13T05:09:59;9.32;;;3.03;;
69937;SDS011;57248;47.320;15.998;2023-03-13T05:13:00;8.90;;;2.40;;
69937;SDS011;57248;47.320;15.998;2023-03-13T05:15:43;8.23;;;2.65;;
69937;SDS011;57248;47.320;15.998;2023-03-13T05:18:34;9.47;;;2.40;;
69937;SDS011;57248;47.320;15.998;2023-03-13T05:21:26;6.43;;;2.60;;
69937;SDS011;57248;47.320;15.998;2023-03-13T05:24:05;7.53;;;2.47;;
69937;SDS011;57248;47.320;15.998;2023-03-13T05:26:57;7.93;;;2.55;;
69937;SDS011;57248;47.320;15.998;2023-03-13T05:29:47;7.53;;;2.38;;
69937;SDS011;57248;47.320;15.998;2023-03-13T05:32:43;6.87;;;2.30;;
69937;SDS011;57248;47.320;15.998;2023-03-13T05:35:34;9.02;;;2.75;;
69937;SDS011;57248;47.320;15.998;2023-03-13T05:38:29;10.00;;;3.10;;
69937;SDS011;57248;47.320;15.998;2023-03-13T05:41:18;12.05;;;3.47;;
69937;SDS011;57248;47.320;15.998;2023-03-13T05:44:10;7.95;;;2.97;;
69937;SDS011;57248;47.320;15.998;2023-03-13T05:47:01;8.40;;;2.73;;
69937;SDS011;57248;47.320;15.998;2023-03-13T05:49:46;9.40;;;3.05;;
69937;SDS011;57248;47.320;15.998;2023-03-13T05:52:37;8.98;;;3.28;;
69937;SDS011;57248;47.320;15.998;2023-03-13T05:55:16;9.35;;;3.00;;
69937;SDS011;57248;47.320;15.998;2023-03-13T05:58:15;7.82;;;2.78;;
69937;SDS011;57248;47.320;15.998;2023-03-13T06:01:08;8.23;;;3.03;;
69937;SDS011;57248;47.320;15.998;2023-03-13T06:03:57;9.07;;;3.40;;
69937;SDS011;57248;47.320;15.998;2023-03-13T06:06:32;9.52;;;3.42;;
69937;SDS011;57248;47.320;15.998;2023-03-13T06:09:05;15.18;;;3.70;;
69937;SDS011;57248;47.320;15.998;2023-03-13T06:11:38;9.43;;;3.15;;
69937;SDS011;57248;47.320;15.998;2023-03-13T06:14:10;10.83;;;3.50;;
69937;SDS011;57248;47.320;15.998;2023-03-13T06:17:14;9.10;;;3.38;;
69937;SDS011;57248;47.320;15.998;2023-03-13T06:19:46;11.00;;;3.85;;
69937;SDS011;57248;47.320;15.998;2023-03-13T06:22:18;10.18;;;3.90;;
69937;SDS011;57248;47.320;15.998;2023-03-13T06:24:50;37.55;;;13.15;;
69937;SDS011;57248;47.320;15.998;2023-03-13T06:27:22;40.77;;;14.20;;
69937;SDS011;57248;47.320;15.998;2023-03-13T06:30:01;31.23;;;11.98;;
69937;SDS011;57248;47.320;15.998;2023-03-13T06:32:34;21.48;;;7.68;;
69937;SDS011;57248;47.320;15.998;2023-03-13T06:35:06;21.65;;;7.07;;
69937;SDS011;57248;47.320;15.998;2023-03-13T06:37:38;11.05;;;4.50;;
69937;SDS011;57248;47.320;15.998;2023-03-13T06:40:10;10.10;;;3.47;;
69937;SDS011;57248;47.320;15.998;2023-03-13T06:42:43;8.18;;;3.58;;
69937;SDS011;57248;47.320;15.998;2023-03-13T06:45:15;11.02;;;4.15;;
69937;SDS011;57248;47.320;15.998;2023-03-13T06:47:47;10.25;;;4.15;;
69937;SDS011;57248;47.320;15.998;2023-03-13T06:50:22;9.88;;;4.28;;
69937;SDS011;57248;47.320;15.998;2023-03-13T06:52:54;9.30;;;3.83;;
69937;SDS011;57248;47.320;15.998;2023-03-13T06:55:22;8.23;;;3.80;;
69937;SDS011;57248;47.320;15.998;2023-03-13T06:57:55;9.18;;;3.78;;
69937;SDS011;57248;47.320;15.998;2023-03-13T07:00:27;9.73;;;4.30;;
69937;SDS011;57248;47.320;15.998;2023-03-13T07:03:00;10.05;;;4.30;;
69937;SDS011;57248;47.320;15.998;2023-03-13T07:05:32;8.53;;;3.87;;
69937;SDS011;57248;47.320;15.998;2023-03-13T07:08:04;8.50;;;4.20;;
69937;SDS011;57248;47.320;15.998;2023-03-13T07:10:36;7.95;;;3.75;;
69937;SDS011;57248;47.320;15.998;2023-03-13T07:13:09;10.25;;;4.45;;
69937;SDS011;57248;47.320;15.998;2023-03-13T07:15:42;10.50;;;4.20;;
69937;SDS011;57248;47.320;15.998;2023-03-13T07:18:14;10.93;;;5.00;;
69937;SDS011;57248;47.320;15.998;2023-03-13T07:20:40;9.63;;;4.95;;
69937;SDS011;57248;47.320;15.998;2023-03-13T07:23:12;9.07;;;4.28;;
69937;SDS011;57248;47.320;15.998;2023-03-13T07:25:51;10.23;;;4.13;;
69937;SDS011;57248;47.320;15.998;2023-03-13T07:28:33;9.13;;;4.20;;
69937;SDS011;57248;47.320;15.998;2023-03-13T07:31:12;9.88;;;4.25;;
69937;SDS011;57248;47.320;15.998;2023-03-13T07:33:46;9.48;;;4.30;;
69937;SDS011;57248;47.320;15.998;2023-03-13T07:36:18;9.38;;;4.43;;
69937;SDS011;57248;47.320;15.998;2023-03-13T07:38:50;9.43;;;4.23;;
69937;SDS011;57248;47.320;15.998;2023-03-13T07:41:23;8.82;;;4.38;;
69937;SDS011;57248;47.320;15.998;2023-03-13T07:43:55;9.38;;;4.18;;
69937;SDS011;57248;47.320;15.998;2023-03-13T07:46:28;8.40;;;4.53;;
69937;SDS011;57248;47.320;15.998;2023-03-13T07:49:00;8.32;;;4.25;;
69937;SDS011;57248;47.320;15.998;2023-03-13T07:51:32;8.40;;;4.40;;
69937;SDS011;57248;47.320;15.998;2023-03-13T07:54:04;8.38;;;4.13;;
69937;SDS011;57248;47.320;15.998;2023-03-13T07:56:36;8.90;;;4.40;;
69937;SDS011;57248;47.320;15.998;2023-03-13T07:59:08;7.85;;;4.03;;
69937;SDS011;57248;47.320;15.998;2023-03-13T08:01:40;7.60;;;3.92;;
69937;SDS011;57248;47.320;15.998;2023-03-13T08:04:13;7.20;;;3.70;;
69937;SDS011;57248;47.320;15.998;2023-03-13T08:06:45;7.95;;;3.70;;
69937;SDS011;57248;47.320;15.998;2023-03-13T08:09:19;8.73;;;4.10;;
69937;SDS011;57248;47.320;15.998;2023-03-13T08:11:44;7.82;;;3.53;;
69937;SDS011;57248;47.320;15.998;2023-03-13T08:14:17;7.95;;;4.15;;
69937;SDS011;57248;47.320;15.998;2023-03-13T08:16:49;8.43;;;4.10;;
69937;SDS011;57248;47.320;15.998;2023-03-13T08:19:21;9.20;;;4.07;;
69937;SDS011;57248;47.320;15.998;2023-03-13T08:21:53;8.95;;;3.80;;
69937;SDS011;57248;47.320;15.998;2023-03-13T08:24:25;8.82;;;4.22;;
69937;SDS011;57248;47.320;15.998;2023-03-13T08:26:58;8.68;;;4.20;;
69937;SDS011;57248;47.320;15.998;2023-03-13T08:29:44;8.97;;;3.80;;
69937;SDS011;57248;47.320;15.998;2023-03-13T08:32:16;8.52;;;3.88;;
69937;SDS011;57248;47.320;15.998;2023-03-13T08:34:48;7.90;;;4.20;;
69937;SDS011;57248;47.320;15.998;2023-03-13T08:37:14;7.23;;;3.90;;
69937;SDS011;57248;47.320;15.998;2023-03-13T08:39:46;9.23;;;4.22;;
69937;SDS011;57248;47.320;15.998;2023-03-13T08:42:19;8.18;;;3.80;;
69937;SDS011;57248;47.320;15.998;2023-03-13T08:44:51;8.73;;;4.20;;
69937;SDS011;57248;47.320;15.998;2023-03-13T08:47:23;7.73;;;3.97;;
69937;SDS011;57248;47.320;15.998;2023-03-13T08:49:55;7.53;;;4.13;;
69937;SDS011;57248;47.320;15.998;2023-03-13T08:52:28;10.77;;;4.18;;
69937;SDS011;57248;47.320;15.998;2023-03-13T08:55:00;9.82;;;4.30;;
69937;SDS011;57248;47.320;15.998;2023-03-13T08:57:32;8.18;;;4.25;;
69937;SDS011;57248;47.320;15.998;2023-03-13T09:00:04;8.13;;;3.80;;
69937;SDS011;57248;47.320;15.998;2023-03-13T09:02:41;9.23;;;3.75;;
69937;SDS011;57248;47.320;15.998;2023-03-13T09:05:14;8.52;;;4.03;;
69937;SDS011;57248;47.320;15.998;2023-03-13T09:07:46;8.98;;;4.20;;
69937;SDS011;57248;47.320;15.998;2023-03-13T09:10:18;8.52;;;4.22;;
69937;SDS011;57248;47.320;15.998;2023-03-13T09:12:51;7.80;;;4.10;;
69937;SDS011;57248;47.320;15.998;2023-03-13T09:15:23;8.93;;;4.20;;
69937;SDS011;57248;47.320;15.998;2023-03-13T09:17:55;10.88;;;4.38;;
69937;SDS011;57248;47.320;15.998;2023-03-13T09:20:21;7.67;;;3.67;;
69937;SDS011;57248;47.320;15.998;2023-03-13T09:22:52;6.65;;;3.85;;
69937;SDS011;57248;47.320;15.998;2023-03-13T09:25:24;7.18;;;3.65;;
69937;SDS011;57248;47.320;15.998;2023-03-13T09:27:56;7.50;;;3.15;;
69937;SDS011;57248;47.320;15.998;2023-03-13T09:30:42;9.47;;;3.80;;
69937;SDS011;57248;47.320;15.998;2023-03-13T09:33:15;7.20;;;3.80;;
69937;SDS011;57248;47.320;15.998;2023-03-13T09:35:47;8.27;;;4.35;;
69937;SDS011;57248;47.320;15.998;2023-03-13T09:38:22;7.97;;;3.60;;
69937;SDS011;57248;47.320;15.998;2023-03-13T09:40:53;8.43;;;3.30;;
69937;SDS011;57248;47.320;15.998;2023-03-13T09:46:12;11.20;;;5.45;;
69937;SDS011;57248;47.320;15.998;2023-03-13T09:49:28;9.23;;;4.35;;
69937;SDS011;57248;47.320;15.998;2023-03-13T09:52:17;7.35;;;4.00;;
69937;SDS011;57248;47.320;15.998;2023-03-13T09:55:00;7.18;;;4.38;;
69937;SDS011;57248;47.320;15.998;2023-03-13T09:57:39;7.33;;;4.20;;
69937;SDS011;57248;47.320;15.998;2023-03-13T10:00:33;6.80;;;4.15;;
69937;SDS011;57248;47.320;15.998;2023-03-13T10:05:45;7.68;;;3.97;;
69937;SDS011;57248;47.320;15.998;2023-03-13T10:08:24;7.43;;;4.15;;
69937;SDS011;57248;47.320;15.998;2023-03-13T10:11:06;7.93;;;4.37;;
69937;SDS011;57248;47.320;15.998;2023-03-13T10:16:53;8.45;;;4.45;;
69937;SDS011;57248;47.320;15.998;2023-03-13T10:19:44;8.32;;;5.30;;
69937;SDS011;57248;47.320;15.998;2023-03-13T10:22:19;6.10;;;4.05;;
69937;SDS011;57248;47.320;15.998;2023-03-13T10:24:57;7.97;;;4.27;;
69937;SDS011;57248;47.320;15.998;2023-03-13T10:27:41;7.07;;;4.70;;
69937;SDS011;57248;47.320;15.998;2023-03-13T10:30:30;6.90;;;4.80;;
69937;SDS011;57248;47.320;15.998;2023-03-13T10:35:42;6.93;;;4.53;;
69937;SDS011;57248;47.320;15.998;2023-03-13T10:38:18;8.37;;;4.60;;
69937;SDS011;57248;47.320;15.998;2023-03-13T10:40:56;7.68;;;4.47;;
69937;SDS011;57248;47.320;15.998;2023-03-13T10:43:29;7.90;;;4.60;;
69937;SDS011;57248;47.320;15.998;2023-03-13T10:46:01;7.38;;;3.80;;
69937;SDS011;57248;47.320;15.998;2023-03-13T10:48:35;7.05;;;4.10;;
69937;SDS011;57248;47.320;15.998;2023-03-13T10:51:11;6.97;;;4.77;;
69937;SDS011;57248;47.320;15.998;2023-03-13T10:53:53;8.18;;;4.60;;
69937;SDS011;57248;47.320;15.998;2023-03-13T10:56:28;7.70;;;4.60;;
69937;SDS011;57248;47.320;15.998;2023-03-13T10:59:02;7.80;;;4.45;;
69937;SDS011;57248;47.320;15.998;2023-03-13T11:01:47;7.00;;;4.65;;
69937;SDS011;57248;47.320;15.998;2023-03-13T11:04:29;6.73;;;4.40;;
69937;SDS011;57248;47.320;15.998;2023-03-13T11:07:04;6.20;;;4.40;;
69937;SDS011;57248;47.320;15.998;2023-03-13T11:09:42;7.05;;;4.90;;
69937;SDS011;57248;47.320;15.998;2023-03-13T11:12:32;6.05;;;4.00;;
69937;SDS011;57248;47.320;15.998;2023-03-13T11:15:10;8.05;;;4.95;;
69937;SDS011;57248;47.320;15.998;2023-03-13T11:17:46;8.00;;;4.97;;
69937;SDS011;57248;47.320;15.998;2023-03-13T11:20:31;9.23;;;5.05;;
69937;SDS011;57248;47.320;15.998;2023-03-13T11:23:18;9.48;;;4.70;;
69937;SDS011;57248;47.320;15.998;2023-03-13T11:26:09;6.65;;;4.10;;
69937;SDS011;57248;47.320;15.998;2023-03-13T11:29:05;7.32;;;4.47;;
69937;SDS011;57248;47.320;15.998;2023-03-13T11:31:58;8.53;;;5.20;;
69937;SDS011;57248;47.320;15.998;2023-03-13T11:35:14;8.23;;;4.93;;
69937;SDS011;57248;47.320;15.998;2023-03-13T11:37:53;7.32;;;5.07;;
69937;SDS011;57248;47.320;15.998;2023-03-13T11:40:31;8.52;;;4.68;;
69937;SDS011;57248;47.320;15.998;2023-03-13T11:43:15;7.63;;;4.60;;
69937;SDS011;57248;47.320;15.998;2023-03-13T11:51:38;8.45;;;4.30;;
69937;SDS011;57248;47.320;15.998;2023-03-13T12:00:30;7.23;;;4.27;;
69937;SDS011;57248;47.320;15.998;2023-03-13T12:03:11;9.68;;;3.70;;
69937;SDS011;57248;47.320;15.998;2023-03-13T12:05:53;7.65;;;3.80;;
69937;SDS011;57248;47.320;15.998;2023-03-13T12:08:42;6.85;;;3.58;;
69937;SDS011;57248;47.320;15.998;2023-03-13T12:11:26;7.32;;;3.80;;
69937;SDS011;57248;47.320;15.998;2023-03-13T12:14:27;6.40;;;3.57;;
69937;SDS011;57248;47.320;15.998;2023-03-13T12:23:18;7.25;;;3.63;;
69937;SDS011;57248;47.320;15.998;2023-03-13T12:25:54;7.43;;;3.30;;
69937;SDS011;57248;47.320;15.998;2023-03-13T12:28:59;5.77;;;3.47;;
69937;SDS011;57248;47.320;15.998;2023-03-13T12:34:47;5.43;;;3.28;;
69937;SDS011;57248;47.320;15.998;2023-03-13T12:37:44;6.38;;;3.10;;
69937;SDS011;57248;47.320;15.998;2023-03-13T12:45:57;6.25;;;2.90;;
69937;SDS011;57248;47.320;15.998;2023-03-13T12:51:51;9.40;;;3.20;;
69937;SDS011;57248;47.320;15.998;2023-03-13T12:59:59;10.10;;;5.10;;
69937;SDS011;57248;47.320;15.998;2023-03-13T13:02:44;8.48;;;3.90;;
69937;SDS011;57248;47.320;15.998;2023-03-13T13:05:16;14.88;;;7.57;;
69937;SDS011;57248;47.320;15.998;2023-03-13T13:07:51;6.50;;;3.88;;
69937;SDS011;57248;47.320;15.998;2023-03-13T13:10:25;6.50;;;3.40;;
69937;SDS011;57248;47.320;15.998;2023-03-13T13:15:46;7.32;;;4.10;;
69937;SDS011;57248;47.320;15.998;2023-03-13T13:18:30;7.57;;;3.83;;
69937;SDS011;57248;47.320;15.998;2023-03-13T13:23:37;7.73;;;4.20;;
69937;SDS011;57248;47.320;15.998;2023-03-13T13:31:56;6.25;;;3.78;;
69937;SDS011;57248;47.320;15.998;2023-03-13T13:39:53;6.75;;;3.95;;
69937;SDS011;57248;47.320;15.998;2023-03-13T13:42:49;6.57;;;3.75;;
69937;SDS011;57248;47.320;15.998;2023-03-13T13:45:27;6.05;;;4.22;;
69937;SDS011;57248;47.320;15.998;2023-03-13T13:48:13;6.88;;;4.22;;
69937;SDS011;57248;47.320;15.998;2023-03-13T13:53:45;5.43;;;3.90;;
69937;SDS011;57248;47.320;15.998;2023-03-13T13:56:38;7.05;;;3.70;;
69937;SDS011;57248;47.320;15.998;2023-03-13T14:04:55;6.87;;;4.27;;
69937;SDS011;57248;47.320;15.998;2023-03-13T14:07:47;7.57;;;4.65;;
69937;SDS011;57248;47.320;15.998;2023-03-13T14:13:20;16.85;;;10.38;;
69937;SDS011;57248;47.320;15.998;2023-03-13T14:15:54;6.25;;;3.67;;
69937;SDS011;57248;47.320;15.998;2023-03-13T14:18:27;24.53;;;11.87;;
69937;SDS011;57248;47.320;15.998;2023-03-13T14:21:04;74.97;;;31.00;;
69937;SDS011;57248;47.320;15.998;2023-03-13T14:23:45;38.75;;;16.50;;
69937;SDS011;57248;47.320;15.998;2023-03-13T14:26:25;15.65;;;8.32;;
69937;SDS011;57248;47.320;15.998;2023-03-13T14:29:05;11.82;;;7.18;;
69937;SDS011;57248;47.320;15.998;2023-03-13T14:31:37;5.90;;;2.60;;
69937;SDS011;57248;47.320;15.998;2023-03-13T14:34:12;6.18;;;2.00;;
69937;SDS011;57248;47.320;15.998;2023-03-13T14:36:50;5.60;;;2.75;;
69937;SDS011;57248;47.320;15.998;2023-03-13T14:42:02;4.70;;;2.60;;
69937;SDS011;57248;47.320;15.998;2023-03-13T14:44:34;4.37;;;2.10;;
69937;SDS011;57248;47.320;15.998;2023-03-13T14:47:07;5.60;;;1.98;;
69937;SDS011;57248;47.320;15.998;2023-03-13T14:49:56;5.57;;;2.08;;
69937;SDS011;57248;47.320;15.998;2023-03-13T14:52:31;4.80;;;2.05;;
69937;SDS011;57248;47.320;15.998;2023-03-13T14:55:05;4.75;;;1.75;;
69937;SDS011;57248;47.320;15.998;2023-03-13T15:00:39;5.40;;;2.20;;
69937;SDS011;57248;47.320;15.998;2023-03-13T15:06:01;4.70;;;1.90;;
69937;SDS011;57248;47.320;15.998;2023-03-13T15:08:44;4.75;;;2.03;;
69937;SDS011;57248;47.320;15.998;2023-03-13T15:13:58;4.28;;;2.20;;
69937;SDS011;57248;47.320;15.998;2023-03-13T15:16:33;4.97;;;2.40;;
69937;SDS011;57248;47.320;15.998;2023-03-13T15:19:04;6.30;;;2.20;;
69937;SDS011;57248;47.320;15.998;2023-03-13T15:21:36;3.95;;;1.60;;
69937;SDS011;57248;47.320;15.998;2023-03-13T15:24:12;5.10;;;1.80;;
69937;SDS011;57248;47.320;15.998;2023-03-13T15:26:48;5.28;;;1.70;;
69937;SDS011;57248;47.320;15.998;2023-03-13T15:29:33;4.80;;;1.75;;
69937;SDS011;57248;47.320;15.998;2023-03-13T15:32:08;4.40;;;1.80;;
69937;SDS011;57248;47.320;15.998;2023-03-13T15:34:44;3.78;;;1.83;;
69937;SDS011;57248;47.320;15.998;2023-03-13T15:37:16;5.47;;;1.83;;
69937;SDS011;57248;47.320;15.998;2023-03-13T15:39:48;3.97;;;2.05;;
69937;SDS011;57248;47.320;15.998;2023-03-13T15:42:21;5.60;;;1.90;;
69937;SDS011;57248;47.320;15.998;2023-03-13T15:44:54;3.83;;;1.75;;
69937;SDS011;57248;47.320;15.998;2023-03-13T15:47:26;4.47;;;1.92;;
69937;SDS011;57248;47.320;15.998;2023-03-13T15:49:58;4.57;;;1.90;;
69937;SDS011;57248;47.320;15.998;2023-03-13T15:52:30;4.78;;;2.08;;
69937;SDS011;57248;47.320;15.998;2023-03-13T15:55:02;6.07;;;2.00;;
69937;SDS011;57248;47.320;15.998;2023-03-13T15:57:45;4.18;;;1.80;;
69937;SDS011;57248;47.320;15.998;2023-03-13T16:00:20;4.55;;;1.65;;
69937;SDS011;57248;47.320;15.998;2023-03-13T16:02:55;4.77;;;1.83;;
69937;SDS011;57248;47.320;15.998;2023-03-13T16:05:28;6.03;;;1.60;;
69937;SDS011;57248;47.320;15.998;2023-03-13T16:07:59;10.23;;;5.10;;
69937;SDS011;57248;47.320;15.998;2023-03-13T16:10:31;6.55;;;2.67;;
69937;SDS011;57248;47.320;15.998;2023-03-13T16:13:03;5.65;;;1.77;;
69937;SDS011;57248;47.320;15.998;2023-03-13T16:15:36;7.63;;;4.70;;
69937;SDS011;57248;47.320;15.998;2023-03-13T16:18:11;4.35;;;1.90;;
69937;SDS011;57248;47.320;15.998;2023-03-13T16:20:46;4.50;;;1.73;;
69937;SDS011;57248;47.320;15.998;2023-03-13T16:23:18;4.88;;;2.00;;
69937;SDS011;57248;47.320;15.998;2023-03-13T16:25:50;3.92;;;1.40;;
69937;SDS011;57248;47.320;15.998;2023-03-13T16:28:24;4.70;;;1.70;;
69937;SDS011;57248;47.320;15.998;2023-03-13T16:31:14;4.15;;;1.45;;
69937;SDS011;57248;47.320;15.998;2023-03-13T16:33:50;3.45;;;1.23;;
69937;SDS011;57248;47.320;15.998;2023-03-13T16:36:24;8.45;;;1.77;;
69937;SDS011;57248;47.320;15.998;2023-03-13T16:39:03;7.13;;;1.67;;
69937;SDS011;57248;47.320;15.998;2023-03-13T16:41:39;11.27;;;1.80;;
69937;SDS011;57248;47.320;15.998;2023-03-13T16:44:11;18.00;;;2.58;;
69937;SDS011;57248;47.320;15.998;2023-03-13T16:46:43;8.77;;;2.42;;
69937;SDS011;57248;47.320;15.998;2023-03-13T16:49:15;7.50;;;2.50;;
69937;SDS011;57248;47.320;15.998;2023-03-13T16:51:47;7.07;;;1.70;;
69937;SDS011;57248;47.320;15.998;2023-03-13T16:54:19;9.40;;;2.30;;
69937;SDS011;57248;47.320;15.998;2023-03-13T16:56:51;6.55;;;2.03;;
69937;SDS011;57248;47.320;15.998;2023-03-13T16:59:23;4.47;;;1.55;;
69937;SDS011;57248;47.320;15.998;2023-03-13T17:01:56;3.97;;;1.50;;